Motion Scan — PCNB — position and weather

sailwx.info

Track history (hours):
 
Tides and Currents Weather Stations Pressure Air Temp Water Temp Dewpoint Dewpoint Depression Visibility Wind Speed Wind Dir Waves Ship Positions

Motion Scan

Last reported at 2014-Nov-10 08:28 UTC. Time now 2014-Nov-23 01:07 UTC.
Position N 36°41' E 122°50'.
Warning: this ship's position is 12 days out of date.

Length 116 m; draft 5.7 m.

Type: Cargo ship. MMSI: 245523000.

Date/timePositionNaut miles runAvg speedWind from/ knotsBaromVisibWave heightAir tempDewpointWater temp
2014-Nov-10 08:28N 36°41' E 122°50'1314.4
2014-Nov-10 07:33N 36°54' E 122°48'1615.6
2014-Nov-10 06:33N 37°10' E 122°48'1816.0
2014-Nov-10 05:24N 37°28' E 122°44'1315.7
2014-Nov-10 04:33N 37°37' E 122°32'1615.0
2014-Nov-10 03:30N 37°47' E 122°16'148 8.7
2014-Nov-09 10:31N 40°15' E 122°06'0 0.0
2014-Nov-09 09:25N 40°15' E 122°06'0 0.0
2014-Nov-09 08:25N 40°15' E 122°06'0 0.0
2014-Nov-09 07:31N 40°15' E 122°06'0 0.0
2014-Nov-09 06:32N 40°15' E 122°06'0 0.0
2014-Nov-09 05:31N 40°15' E 122°06'0 0.0
2014-Nov-09 04:31N 40°15' E 122°06'0 0.0
2014-Nov-09 03:31N 40°15' E 122°06'0 0.0
2014-Nov-09 02:31N 40°15' E 122°06'0 0.0
2014-Nov-09 01:31N 40°15' E 122°06'0 0.0
2014-Nov-09 00:31N 40°15' E 122°06'0 0.0
2014-Nov-08 23:25N 40°15' E 122°06'0 0.0
2014-Nov-08 22:31N 40°15' E 122°06'0 0.0
2014-Nov-08 21:31N 40°15' E 122°06'0 0.0
2014-Nov-08 20:31N 40°15' E 122°06'0 0.0
2014-Nov-08 19:31N 40°15' E 122°06'0 0.0
2014-Nov-08 18:31N 40°15' E 122°06'0 0.0
2014-Nov-08 17:31N 40°15' E 122°06'0 0.0
2014-Nov-08 16:31N 40°15' E 122°06'0 0.3
2014-Nov-08 15:33N 40°15' E 122°05'5 4.8
2014-Nov-08 14:33N 40°18' E 122°00'8 1.9
2014-Nov-08 10:07N 40°22' E 121°51'0 0.0
2014-Nov-08 02:25N 40°22' E 121°51'200 4.6
2014-Nov-06 06:33N 38°50' E 118°01'9 9.1
2014-Nov-06 05:33N 38°56' E 117°51'4 3.8
2014-Nov-06 04:30N 38°56' E 117°46'0 0.0
2014-Nov-06 03:30N 38°56' E 117°46'0 0.0
2014-Nov-06 02:30N 38°56' E 117°46'0 0.0
2014-Nov-06 01:30N 38°56' E 117°46'0 0.0
2014-Nov-06 00:24N 38°56' E 117°46'0 0.0
2014-Nov-05 23:30N 38°56' E 117°46'0 0.0
2014-Nov-05 22:24N 38°56' E 117°46'0 0.0
2014-Nov-05 21:30N 38°56' E 117°46'0 0.0
2014-Nov-05 19:30N 38°56' E 117°46'0 0.0
2014-Nov-05 18:30N 38°56' E 117°46'0 0.0
2014-Nov-05 17:24N 38°56' E 117°46'0 0.0
2014-Nov-05 16:24N 38°56' E 117°46'0 0.0
2014-Nov-05 15:18N 38°56' E 117°46'0 0.0
2014-Nov-05 14:24N 38°56' E 117°46'0 0.0
2014-Nov-05 13:30N 38°56' E 117°46'0 0.0
2014-Nov-05 12:24N 38°56' E 117°46'0 0.0
2014-Nov-05 11:30N 38°56' E 117°46'0 0.0
2014-Nov-05 10:30N 38°56' E 117°46'0 0.0
2014-Nov-05 09:24N 38°56' E 117°46'0 0.0
2014-Nov-05 08:30N 38°56' E 117°46'0 0.0
2014-Nov-05 07:30N 38°56' E 117°46'0 0.0
2014-Nov-05 06:24N 38°56' E 117°46'0 0.0
2014-Nov-05 05:31N 38°56' E 117°46'0 0.0
2014-Nov-05 04:30N 38°56' E 117°46'0 0.0
2014-Nov-05 03:30N 38°56' E 117°46'2 1.8
2014-Nov-05 02:33N 38°56' E 117°48'9 9.3
2014-Nov-05 01:33N 38°52' E 117°59'7 6.9
2014-Nov-05 00:33N 38°52' E 118°08'15011.4
2014-Nov-04 11:22N 38°25' E 121°17'1011.6
2014-Nov-04 10:32N 38°20' E 121°27'1211.6
2014-Nov-04 09:31N 38°13' E 121°39'3911.6
2014-Nov-04 06:12N 37°50' E 122°18'912.6
2014-Nov-04 05:31N 37°45' E 122°27'3411.2
2014-Nov-04 02:28N 37°18' E 122°54'1111.7
2014-Nov-04 01:33N 37°07' E 122°54'1211.6
2014-Nov-04 00:33N 36°55' E 122°54'1211.6
2014-Nov-03 23:29N 36°43' E 122°56'  
Track history (hours):
 
Tides and Currents Weather Stations Pressure Air Temp Water Temp Dewpoint Dewpoint Depression Visibility Wind Speed Wind Dir Waves Ship Positions

Motion Scan

Last reported at 2014-Nov-10 08:28 UTC. Time now 2014-Nov-23 01:07 UTC.
Position N 36°41' E 122°50'.
Warning: this ship's position is 12 days out of date.

Length 116 m; draft 5.7 m.

Type: Cargo ship. MMSI: 245523000.

Date/timePositionNaut miles runAvg speedWind from/ knotsBaromVisibWave heightAir tempDewpointWater temp
2014-Nov-10 08:28N 36°41' E 122°50'1314.4
2014-Nov-10 07:33N 36°54' E 122°48'1615.6
2014-Nov-10 06:33N 37°10' E 122°48'1816.0
2014-Nov-10 05:24N 37°28' E 122°44'1315.7
2014-Nov-10 04:33N 37°37' E 122°32'1615.0
2014-Nov-10 03:30N 37°47' E 122°16'148 8.7
2014-Nov-09 10:31N 40°15' E 122°06'0 0.0
2014-Nov-09 09:25N 40°15' E 122°06'0 0.0
2014-Nov-09 08:25N 40°15' E 122°06'0 0.0
2014-Nov-09 07:31N 40°15' E 122°06'0 0.0
2014-Nov-09 06:32N 40°15' E 122°06'0 0.0
2014-Nov-09 05:31N 40°15' E 122°06'0 0.0
2014-Nov-09 04:31N 40°15' E 122°06'0 0.0
2014-Nov-09 03:31N 40°15' E 122°06'0 0.0
2014-Nov-09 02:31N 40°15' E 122°06'0 0.0
2014-Nov-09 01:31N 40°15' E 122°06'0 0.0
2014-Nov-09 00:31N 40°15' E 122°06'0 0.0
2014-Nov-08 23:25N 40°15' E 122°06'0 0.0
2014-Nov-08 22:31N 40°15' E 122°06'0 0.0
2014-Nov-08 21:31N 40°15' E 122°06'0 0.0
2014-Nov-08 20:31N 40°15' E 122°06'0 0.0
2014-Nov-08 19:31N 40°15' E 122°06'0 0.0
2014-Nov-08 18:31N 40°15' E 122°06'0 0.0
2014-Nov-08 17:31N 40°15' E 122°06'0 0.0
2014-Nov-08 16:31N 40°15' E 122°06'0 0.3
2014-Nov-08 15:33N 40°15' E 122°05'5 4.8
2014-Nov-08 14:33N 40°18' E 122°00'8 1.9
2014-Nov-08 10:07N 40°22' E 121°51'0 0.0
2014-Nov-08 02:25N 40°22' E 121°51'200 4.6
2014-Nov-06 06:33N 38°50' E 118°01'9 9.1
2014-Nov-06 05:33N 38°56' E 117°51'4 3.8
2014-Nov-06 04:30N 38°56' E 117°46'0 0.0
2014-Nov-06 03:30N 38°56' E 117°46'0 0.0
2014-Nov-06 02:30N 38°56' E 117°46'0 0.0
2014-Nov-06 01:30N 38°56' E 117°46'0 0.0
2014-Nov-06 00:24N 38°56' E 117°46'0 0.0
2014-Nov-05 23:30N 38°56' E 117°46'0 0.0
2014-Nov-05 22:24N 38°56' E 117°46'0 0.0
2014-Nov-05 21:30N 38°56' E 117°46'0 0.0
2014-Nov-05 19:30N 38°56' E 117°46'0 0.0
2014-Nov-05 18:30N 38°56' E 117°46'0 0.0
2014-Nov-05 17:24N 38°56' E 117°46'0 0.0
2014-Nov-05 16:24N 38°56' E 117°46'0 0.0
2014-Nov-05 15:18N 38°56' E 117°46'0 0.0
2014-Nov-05 14:24N 38°56' E 117°46'0 0.0
2014-Nov-05 13:30N 38°56' E 117°46'0 0.0
2014-Nov-05 12:24N 38°56' E 117°46'0 0.0
2014-Nov-05 11:30N 38°56' E 117°46'0 0.0
2014-Nov-05 10:30N 38°56' E 117°46'0 0.0
2014-Nov-05 09:24N 38°56' E 117°46'0 0.0
2014-Nov-05 08:30N 38°56' E 117°46'0 0.0
2014-Nov-05 07:30N 38°56' E 117°46'0 0.0
2014-Nov-05 06:24N 38°56' E 117°46'0 0.0
2014-Nov-05 05:31N 38°56' E 117°46'0 0.0
2014-Nov-05 04:30N 38°56' E 117°46'0 0.0
2014-Nov-05 03:30N 38°56' E 117°46'2 1.8
2014-Nov-05 02:33N 38°56' E 117°48'9 9.3
2014-Nov-05 01:33N 38°52' E 117°59'7 6.9
2014-Nov-05 00:33N 38°52' E 118°08'15011.4
2014-Nov-04 11:22N 38°25' E 121°17'1011.6
2014-Nov-04 10:32N 38°20' E 121°27'1211.6
2014-Nov-04 09:31N 38°13' E 121°39'3911.6
2014-Nov-04 06:12N 37°50' E 122°18'912.6
2014-Nov-04 05:31N 37°45' E 122°27'3411.2
2014-Nov-04 02:28N 37°18' E 122°54'1111.7
2014-Nov-04 01:33N 37°07' E 122°54'1211.6
2014-Nov-04 00:33N 36°55' E 122°54'1211.6
2014-Nov-03 23:29N 36°43' E 122°56'  

Dump ship's entire track history